Time;durP1;ratioP1;P1;durP2;ratioP2;P2;SDS_P1;SDS_P2;PMS_P1;PMS_P2;Temp;Humidity;BMP_temperature;BMP_pressure;BME280_temperature;BME280_humidity;BME280_pressure;Samples;Min_cycle;Max_cycle;Signal;HPM_P1;HPM_P2
2023/03/02 00:00:10;;;;;;;16.77;8.50;;;2.20;99.90;;;;;;9871452;30;20500;-83
2023/03/02 00:05:33;;;;;;;14.23;7.67;;;2.10;99.90;;;;;;9865652;30;20272;-83
2023/03/02 00:10:56;;;;;;;13.20;7.63;;;2.10;99.90;;;;;;9879309;30;20203;-83
2023/03/02 00:16:17;;;;;;;11.07;5.83;;;2.00;99.90;;;;;;9878903;30;20203;-84
2023/03/02 00:21:40;;;;;;;8.53;5.40;;;1.90;99.90;;;;;;9845131;30;20215;-85
2023/03/02 00:27:01;;;;;;;8.10;5.50;;;1.80;99.90;;;;;;9851532;30;20239;-85
2023/03/02 00:32:24;;;;;;;9.83;5.93;;;1.80;99.90;;;;;;9874228;30;20208;-83
2023/03/02 00:37:51;;;;;;;7.27;4.80;;;1.70;99.90;;;;;;9827223;30;20255;-82
2023/03/02 00:43:12;;;;;;;6.07;4.40;;;1.60;99.90;;;;;;9858839;30;20270;-84
2023/03/02 00:48:34;;;;;;;7.17;4.30;;;1.50;99.90;;;;;;9847865;30;20272;-85
2023/03/02 00:53:55;;;;;;;6.93;4.57;;;1.50;99.90;;;;;;9839822;30;20210;-85
2023/03/02 00:59:29;;;;;;;9.70;5.30;;;1.40;99.90;;;;;;9860352;30;20203;-85
2023/03/02 01:05:04;;;;;;;7.10;4.97;;;1.50;99.90;;;;;;9840514;30;20226;-84
2023/03/02 01:10:40;;;;;;;12.33;5.13;;;1.60;99.90;;;;;;9840288;30;20591;-82
2023/03/02 01:16:02;;;;;;;9.20;5.47;;;1.60;99.90;;;;;;9847341;30;20238;-83
2023/03/02 01:21:23;;;;;;;8.13;5.63;;;1.60;99.90;;;;;;9863502;30;20256;-83
2023/03/02 01:26:44;;;;;;;7.00;4.73;;;1.60;99.90;;;;;;9847483;30;20242;-83
2023/03/02 01:32:06;;;;;;;8.00;4.70;;;1.60;99.90;;;;;;9847429;30;20411;-84
2023/03/02 01:37:27;;;;;;;9.40;5.20;;;1.60;99.90;;;;;;9839364;30;20277;-84
2023/03/02 01:42:57;;;;;;;9.83;5.77;;;1.50;99.90;;;;;;9845430;30;20257;-83
2023/03/02 01:48:49;;;;;;;9.60;5.77;;;1.50;99.90;;;;;;9834194;30;20245;-83
2023/03/02 01:54:21;;;;;;;12.83;7.30;;;1.50;99.90;;;;;;9856146;30;20212;-83
2023/03/02 01:59:49;;;;;;;7.63;5.07;;;1.60;99.90;;;;;;9833957;30;20285;-83
2023/03/02 02:05:13;;;;;;;10.13;5.57;;;1.60;99.90;;;;;;9815949;30;20259;-82
2023/03/02 02:10:35;;;;;;;8.57;5.13;;;1.50;99.90;;;;;;9832162;30;20279;-83
2023/03/02 02:15:56;;;;;;;8.23;5.07;;;1.50;99.90;;;;;;9823812;30;20216;-83
2023/03/02 02:21:19;;;;;;;10.23;5.83;;;1.50;99.90;;;;;;9804177;30;20497;-83
2023/03/02 02:26:50;;;;;;;12.40;5.77;;;1.50;99.90;;;;;;9836759;30;20239;-83
2023/03/02 02:32:14;;;;;;;11.80;6.60;;;1.60;99.90;;;;;;9844526;30;20282;-83
2023/03/02 02:37:44;;;;;;;11.53;5.80;;;1.60;99.90;;;;;;9831311;30;20412;-83
2023/03/02 02:43:13;;;;;;;10.13;5.77;;;1.60;99.90;;;;;;9844345;30;20230;-83
2023/03/02 02:48:34;;;;;;;10.30;5.50;;;1.50;99.90;;;;;;9833517;30;20243;-84
2023/03/02 02:53:59;;;;;;;8.37;4.70;;;1.40;99.90;;;;;;9843575;30;20217;-83
2023/03/02 02:59:35;;;;;;;7.53;5.23;;;1.30;99.90;;;;;;9844300;30;20207;-84
2023/03/02 03:05:01;;;;;;;8.17;5.13;;;1.30;99.90;;;;;;9856213;30;20274;-83
2023/03/02 03:10:33;;;;;;;6.73;4.73;;;1.30;99.90;;;;;;9830242;30;20238;-82
2023/03/02 03:15:56;;;;;;;7.77;5.23;;;1.30;99.90;;;;;;9843201;30;20234;-83
2023/03/02 03:21:17;;;;;;;8.90;5.07;;;1.30;99.90;;;;;;9830679;30;20217;-85
2023/03/02 03:26:39;;;;;;;8.10;5.13;;;1.30;99.90;;;;;;9842251;30;20243;-85
2023/03/02 03:32:03;;;;;;;8.87;5.17;;;1.30;99.90;;;;;;9830652;30;20215;-84
2023/03/02 03:37:24;;;;;;;9.33;5.40;;;1.30;99.90;;;;;;9830151;30;20305;-84
2023/03/02 03:42:46;;;;;;;7.83;4.73;;;1.20;99.90;;;;;;9828310;30;20272;-84
2023/03/02 03:48:08;;;;;;;9.40;4.63;;;1.10;99.90;;;;;;9842604;30;20238;-85
2023/03/02 03:53:29;;;;;;;6.20;4.17;;;1.00;99.90;;;;;;9842441;30;20206;-85
2023/03/02 03:58:52;;;;;;;8.20;4.83;;;0.90;99.90;;;;;;9817641;30;20223;-85
2023/03/02 04:04:26;;;;;;;11.60;6.40;;;1.00;99.90;;;;;;9818201;30;20548;-82
2023/03/02 04:09:48;;;;;;;11.53;7.33;;;0.90;99.90;;;;;;9865127;30;20238;-86
2023/03/02 04:15:13;;;;;;;10.70;5.93;;;1.00;99.90;;;;;;9901914;24;20265;-84
2023/03/02 04:20:36;;;;;;;14.80;8.07;;;1.00;99.90;;;;;;9832175;30;20200;-82
2023/03/02 04:25:57;;;;;;;15.70;10.10;;;0.90;99.90;;;;;;9811696;30;20218;-83
2023/03/02 04:31:20;;;;;;;9.83;6.47;;;0.90;99.90;;;;;;9812767;30;20559;-83
2023/03/02 04:36:43;;;;;;;14.10;8.87;;;1.00;99.90;;;;;;9816182;30;20210;-84
2023/03/02 04:42:06;;;;;;;13.50;8.43;;;1.00;99.90;;;;;;9774585;30;20246;-83
2023/03/02 04:47:27;;;;;;;13.60;8.93;;;1.00;99.90;;;;;;9787794;30;20244;-84
2023/03/02 04:52:49;;;;;;;10.07;6.77;;;1.00;99.90;;;;;;9764297;30;20209;-83
2023/03/02 04:58:10;;;;;;;10.17;6.97;;;1.00;99.90;;;;;;9789870;30;20525;-84
2023/03/02 05:03:32;;;;;;;8.47;5.73;;;1.00;99.90;;;;;;9794398;30;20201;-84
2023/03/02 05:08:53;;;;;;;23.57;13.63;;;1.00;99.90;;;;;;9797816;30;20625;-84
2023/03/02 05:14:14;;;;;;;21.57;14.60;;;1.00;99.90;;;;;;9810183;30;20224;-83
2023/03/02 05:19:35;;;;;;;10.70;7.70;;;1.00;99.90;;;;;;9810574;30;20211;-84
2023/03/02 05:24:57;;;;;;;23.07;9.50;;;1.00;99.90;;;;;;9822499;30;20212;-84
2023/03/02 05:30:19;;;;;;;18.17;9.27;;;1.10;99.90;;;;;;9810274;30;20239;-84
2023/03/02 05:35:40;;;;;;;18.47;8.97;;;1.10;99.90;;;;;;9810056;30;20461;-84
2023/03/02 05:41:02;;;;;;;11.40;8.03;;;1.10;99.90;;;;;;9807320;30;20211;-84
2023/03/02 05:46:23;;;;;;;12.10;8.00;;;1.10;99.90;;;;;;9777250;30;20241;-85
2023/03/02 05:51:44;;;;;;;14.90;6.80;;;1.20;99.90;;;;;;9798936;30;20201;-83
2023/03/02 05:57:06;;;;;;;10.33;6.07;;;1.20;99.90;;;;;;9820439;30;20219;-84
2023/03/02 06:02:27;;;;;;;11.80;5.83;;;1.30;99.90;;;;;;9810063;30;20502;-84
2023/03/02 06:07:49;;;;;;;9.47;5.50;;;1.30;99.90;;;;;;9808899;30;20242;-84
2023/03/02 06:13:10;;;;;;;10.27;6.17;;;1.30;99.90;;;;;;9795868;30;20507;-85
2023/03/02 06:18:31;;;;;;;19.20;12.73;;;1.40;99.90;;;;;;9821411;30;20317;-83
2023/03/02 06:23:53;;;;;;;11.63;7.23;;;1.40;99.90;;;;;;9838065;30;20291;-84
2023/03/02 06:29:14;;;;;;;9.83;5.10;;;1.40;99.90;;;;;;9818924;30;20600;-83
2023/03/02 06:34:35;;;;;;;9.27;4.57;;;1.30;99.90;;;;;;9808751;30;20227;-84
2023/03/02 06:39:57;;;;;;;6.77;3.87;;;1.20;99.90;;;;;;9808517;30;20284;-85
2023/03/02 06:45:18;;;;;;;6.87;3.73;;;1.10;99.90;;;;;;9807498;30;20212;-84
2023/03/02 06:50:40;;;;;;;7.90;4.53;;;1.20;99.90;;;;;;9808388;30;20394;-84
2023/03/02 06:56:01;;;;;;;8.87;4.80;;;1.40;99.90;;;;;;9794989;30;20239;-84
2023/03/02 07:01:22;;;;;;;11.07;5.30;;;1.60;99.90;;;;;;9794847;30;20232;-85
2023/03/02 07:06:44;;;;;;;6.37;4.20;;;1.60;99.90;;;;;;9806375;30;20447;-84
2023/03/02 07:12:05;;;;;;;7.57;4.30;;;1.80;99.90;;;;;;9805035;30;20220;-84
2023/03/02 07:17:26;;;;;;;6.03;3.80;;;1.80;99.90;;;;;;9770296;30;20255;-85
2023/03/02 07:22:48;;;;;;;7.47;3.80;;;1.80;99.90;;;;;;9798135;30;20265;-83
2023/03/02 07:28:09;;;;;;;6.37;3.67;;;1.80;99.90;;;;;;9797730;30;20338;-83
2023/03/02 07:33:31;;;;;;;5.47;3.50;;;1.90;99.90;;;;;;9802884;30;20212;-84
2023/03/02 07:38:53;;;;;;;6.53;4.00;;;1.90;99.90;;;;;;9782605;30;20228;-84
2023/03/02 07:44:15;;;;;;;6.87;4.50;;;2.10;99.90;;;;;;9783634;30;20406;-85
2023/03/02 07:49:36;;;;;;;9.77;6.00;;;2.10;99.90;;;;;;9785309;30;20411;-85
2023/03/02 07:55:05;;;;;;;8.90;5.17;;;2.30;99.90;;;;;;9805609;30;20243;-85
2023/03/02 08:00:27;;;;;;;8.73;5.33;;;2.50;99.90;;;;;;9806732;30;20217;-85
2023/03/02 08:05:48;;;;;;;11.97;6.47;;;2.80;99.90;;;;;;9805659;30;20291;-85
2023/03/02 08:11:17;;;;;;;8.90;5.23;;;2.90;99.90;;;;;;9819648;30;20310;-86
2023/03/02 08:16:38;;;;;;;7.27;4.53;;;3.00;99.90;;;;;;9817757;30;20680;-84
2023/03/02 08:22:09;;;;;;;4.27;2.80;;;3.30;99.90;;;;;;9816770;30;20216;-87
2023/03/02 08:27:30;;;;;;;3.43;1.87;;;3.80;99.90;;;;;;9836331;30;20277;-91
2023/03/02 08:32:54;;;;;;;6.40;3.60;;;5.00;99.90;;;;;;9846551;30;20286;-82
2023/03/02 08:38:16;;;;;;;3.53;2.00;;;6.10;99.90;;;;;;9835286;30;20204;-83
2023/03/02 08:43:38;;;;;;;3.27;2.00;;;6.90;95.80;;;;;;9848842;30;20217;-83
2023/03/02 08:48:59;;;;;;;4.13;2.20;;;8.50;90.30;;;;;;9844899;30;20285;-83
2023/03/02 08:54:21;;;;;;;5.15;2.63;;;10.20;45.70;;;;;;9830571;30;20214;-84
2023/03/02 08:59:42;;;;;;;9.70;4.03;;;11.40;31.80;;;;;;9819612;30;20275;-83
2023/03/02 09:05:04;;;;;;;6.63;4.28;;;12.20;26.50;;;;;;9829257;30;20256;-84
2023/03/02 09:10:25;;;;;;;5.93;3.58;;;12.60;22.20;;;;;;9882157;30;20233;-84
2023/03/02 09:15:47;;;;;;;5.13;3.25;;;12.80;21.10;;;;;;9859119;30;20358;-85
2023/03/02 09:21:09;;;;;;;5.90;2.67;;;12.70;21.00;;;;;;9872662;30;20204;-83
2023/03/02 09:26:30;;;;;;;3.70;2.22;;;13.20;19.60;;;;;;9845032;30;20416;-88
2023/03/02 09:31:52;;;;;;;3.20;1.92;;;13.20;17.80;;;;;;9838009;30;20208;-88
2023/03/02 09:37:13;;;;;;;4.18;2.45;;;11.80;20.10;;;;;;9832834;30;20290;-88
2023/03/02 09:43:03;;;;;;;4.35;2.40;;;12.00;21.30;;;;;;9856735;30;20222;-86
2023/03/02 09:48:36;;;;;;;2.35;2.00;;;12.60;20.50;;;;;;9857136;30;20263;-87
2023/03/02 09:54:10;;;;;;;2.75;2.00;;;13.70;17.10;;;;;;9831736;30;20214;-83
2023/03/02 09:59:38;;;;;;;3.50;2.47;;;14.10;15.80;;;;;;9856056;30;20511;-80
2023/03/02 10:05:03;;;;;;;3.17;1.90;;;14.00;15.40;;;;;;9833750;30;20210;-85
2023/03/02 10:10:26;;;;;;;4.25;2.58;;;14.10;14.60;;;;;;9808563;30;20313;-91
2023/03/02 10:15:57;;;;;;;3.13;2.25;;;13.50;15.50;;;;;;9844135;30;20556;-82
2023/03/02 10:21:23;;;;;;;6.80;2.63;;;13.60;16.00;;;;;;9854401;30;20284;-83
2023/03/02 10:26:49;;;;;;;5.00;3.10;;;13.90;15.80;;;;;;9831077;30;20237;-83
2023/03/02 10:32:42;;;;;;;8.63;3.55;;;14.20;14.60;;;;;;9832469;30;20291;-83
2023/03/02 10:38:23;;;;;;;4.13;2.20;;;14.80;13.90;;;;;;9820652;30;20262;-83
2023/03/02 10:43:45;;;;;;;6.93;3.83;;;;;;;;;;9823430;30;20515;-92
2023/03/02 10:49:27;;;;;;;6.72;2.47;;;15.60;12.60;;;;;;9831293;30;20240;-84
2023/03/02 10:54:48;;;;;;;4.45;2.22;;;15.70;11.30;;;;;;9828437;30;20473;-85
2023/03/02 11:00:13;;;;;;;4.20;2.42;;;15.40;11.50;;;;;;9850341;30;20505;-80
2023/03/02 11:05:35;;;;;;;9.13;2.30;;;15.70;11.60;;;;;;9836651;30;20389;-84
2023/03/02 11:10:58;;;;;;;5.25;2.50;;;15.80;11.20;;;;;;9840356;30;20293;-93
2023/03/02 11:16:40;;;;;;;3.78;2.70;;;16.40;9.80;;;;;;9830624;30;20349;-89
2023/03/02 11:22:21;;;;;;;71.00;32.63;;;16.50;9.30;;;;;;9819804;30;20228;-86
2023/03/02 11:27:54;;;;;;;53.00;29.85;;;17.20;8.90;;;;;;9853569;30;20546;-82
2023/03/02 11:33:45;;;;;;;28.13;15.25;;;16.60;8.60;;;;;;9855300;30;20202;-81
2023/03/02 11:39:15;;;;;;;7.53;3.22;;;16.40;8.90;;;;;;9842015;30;20220;-86
2023/03/02 11:44:36;;;;;;;9.13;4.35;;;16.80;8.90;;;;;;9837869;30;20216;-84
2023/03/02 11:50:04;;;;;;;5.47;3.60;;;17.00;8.80;;;;;;9838287;30;20239;-83
2023/03/02 11:55:28;;;;;;;5.43;3.33;;;16.60;8.70;;;;;;9836625;30;20205;-81
2023/03/02 12:00:51;;;;;;;5.22;2.70;;;16.60;8.70;;;;;;9842275;30;20247;-81
2023/03/02 12:06:21;;;;;;;4.82;3.53;;;17.00;9.10;;;;;;9825602;30;20453;-78
2023/03/02 12:11:45;;;;;;;4.68;3.28;;;17.10;8.70;;;;;;9832111;30;20236;-89
2023/03/02 12:17:21;;;;;;;5.30;3.47;;;17.10;9.10;;;;;;9836576;30;20255;-90
2023/03/02 12:22:42;;;;;;;8.43;3.90;;;16.80;8.80;;;;;;9845712;30;20253;-81
2023/03/02 12:28:04;;;;;;;8.20;4.32;;;17.20;8.90;;;;;;9841909;30;20254;-86
2023/03/02 12:33:25;;;;;;;4.03;2.92;;;17.00;8.30;;;;;;9857251;30;20276;-87
2023/03/02 12:39:05;;;;;;;6.07;3.50;;;17.00;7.90;;;;;;9827527;30;20219;-81
2023/03/02 12:44:49;;;;;;;7.78;2.83;;;17.30;8.10;;;;;;9835806;30;20208;-82
2023/03/02 12:50:21;;;;;;;9.40;3.10;;;17.90;6.90;;;;;;9837369;30;20611;-91
2023/03/02 12:55:42;;;;;;;5.70;3.20;;;17.20;7.40;;;;;;9844195;30;20484;-82
2023/03/02 13:01:04;;;;;;;4.72;2.83;;;17.10;6.80;;;;;;9839340;30;20533;-81
2023/03/02 13:06:31;;;;;;;6.93;3.47;;;16.80;6.80;;;;;;9794425;30;20227;-89
2023/03/02 13:11:53;;;;;;;7.70;5.35;;;16.50;8.10;;;;;;9779415;30;20562;-83
2023/03/02 13:17:30;;;;;;;5.68;3.33;;;16.40;7.60;;;;;;9827143;30;20262;-79
2023/03/02 13:22:52;;;;;;;7.20;2.83;;;15.90;7.10;;;;;;9846981;30;20571;-86
2023/03/02 13:28:37;;;;;;;16.77;10.52;;;15.60;8.90;;;;;;9785160;30;20323;-86
2023/03/02 13:34:04;;;;;;;5.57;2.70;;;15.50;8.50;;;;;;9809550;30;20228;-86
2023/03/02 13:39:28;;;;;;;5.95;2.72;;;15.80;8.60;;;;;;9793008;30;20206;-89
2023/03/02 13:44:50;;;;;;;10.43;7.47;;;15.90;9.10;;;;;;9795226;30;20416;-83
2023/03/02 13:50:22;;;;;;;3.03;2.58;;;16.20;9.10;;;;;;9804803;30;20246;-87
2023/03/02 13:55:44;;;;;;;9.07;5.23;;;16.00;9.20;;;;;;9825412;30;20229;-86
2023/03/02 14:01:06;;;;;;;6.93;3.63;;;15.20;9.60;;;;;;9790644;30;20293;-82
2023/03/02 14:06:27;;;;;;;6.70;4.37;;;14.60;11.10;;;;;;9813470;30;20211;-85
2023/03/02 14:11:53;;;;;;;10.13;5.87;;;14.40;12.10;;;;;;9793206;30;20315;-84
2023/03/02 14:17:20;;;;;;;16.47;7.67;;;14.40;12.70;;;;;;9817844;30;20277;-83
2023/03/02 14:22:43;;;;;;;19.40;8.30;;;14.00;12.70;;;;;;9812365;30;20213;-87
2023/03/02 14:28:04;;;;;;;13.63;7.03;;;13.30;13.70;;;;;;9827691;30;20327;-87
2023/03/02 14:33:26;;;;;;;14.03;7.77;;;12.40;15.60;;;;;;9844503;30;20201;-87
2023/03/02 14:38:47;;;;;;;29.03;15.47;;;11.40;17.60;;;;;;9832083;30;20199;-87
2023/03/02 14:44:10;;;;;;;18.13;9.40;;;10.40;20.30;;;;;;9820047;30;20202;-86
2023/03/02 14:49:56;;;;;;;81.77;40.73;;;9.80;22.80;;;;;;9831105;30;20222;-87
2023/03/02 14:55:26;;;;;;;35.10;20.03;;;9.40;1.00;;;;;;9812260;30;20221;-82
2023/03/02 15:00:48;;;;;;;19.17;9.33;;;9.10;45.20;;;;;;9805700;30;20284;-79
2023/03/02 15:06:30;;;;;;;23.80;12.27;;;8.80;99.90;;;;;;9787234;30;20206;-83
2023/03/02 15:11:51;;;;;;;31.40;15.67;;;8.60;1.00;;;;;;9801679;30;20237;-83
2023/03/02 15:17:12;;;;;;;34.53;17.47;;;8.30;1.00;;;;;;9801262;30;20236;-82
2023/03/02 15:22:33;;;;;;;39.90;19.40;;;7.80;1.00;;;;;;9804196;30;20538;-83
2023/03/02 15:27:56;;;;;;;22.87;12.90;;;7.60;1.00;;;;;;9812392;30;20479;-83
2023/03/02 15:33:17;;;;;;;16.20;10.37;;;7.70;94.50;;;;;;9792514;30;20218;-83
2023/03/02 15:38:39;;;;;;;39.60;18.33;;;7.50;95.60;;;;;;9799726;30;20216;-82
2023/03/02 15:44:06;;;;;;;43.83;20.70;;;7.20;97.60;;;;;;9789844;30;20250;-85
2023/03/02 15:49:28;;;;;;;41.83;19.53;;;7.00;98.10;;;;;;9788095;30;20395;-81
2023/03/02 15:54:49;;;;;;;38.20;19.87;;;6.90;99.60;;;;;;9810327;30;20242;-83
2023/03/02 16:00:12;;;;;;;37.07;20.33;;;6.80;99.10;;;;;;9796613;30;20250;-82
2023/03/02 16:05:33;;;;;;;42.17;19.57;;;6.60;99.60;;;;;;9806777;30;20200;-81
2023/03/02 16:10:59;;;;;;;40.20;20.60;;;6.40;99.90;;;;;;9789057;30;20233;-83
2023/03/02 16:16:21;;;;;;;40.37;21.03;;;6.10;99.90;;;;;;9790209;30;20256;-82
2023/03/02 16:21:42;;;;;;;37.80;22.50;;;6.00;99.90;;;;;;9810468;30;20224;-83
2023/03/02 16:27:04;;;;;;;62.67;32.87;;;5.90;99.90;;;;;;9810166;30;20235;-83
2023/03/02 16:32:35;;;;;;;39.63;22.77;;;5.60;99.90;;;;;;9824134;30;20216;-83
2023/03/02 16:37:56;;;;;;;38.43;20.43;;;5.30;99.90;;;;;;9810149;30;20225;-83
2023/03/02 16:43:19;;;;;;;50.43;27.77;;;5.00;99.90;;;;;;9811846;30;20230;-84
2023/03/02 16:48:41;;;;;;;72.20;36.37;;;5.00;99.90;;;;;;9774980;30;20348;-83
2023/03/02 16:54:03;;;;;;;106.30;49.50;;;4.80;99.90;;;;;;9793773;30;20233;-83
2023/03/02 16:59:24;;;;;;;112.20;53.67;;;4.70;99.90;;;;;;9811341;30;20510;-83
2023/03/02 17:04:45;;;;;;;64.43;32.97;;;4.60;99.90;;;;;;9790742;30;20211;-83
2023/03/02 17:10:08;;;;;;;41.17;23.33;;;4.50;99.90;;;;;;9797330;30;20245;-83
2023/03/02 17:15:30;;;;;;;35.63;22.60;;;4.40;99.90;;;;;;9836124;30;20242;-84
2023/03/02 17:20:52;;;;;;;44.07;25.53;;;4.30;99.90;;;;;;9858105;30;20282;-83
2023/03/02 17:26:14;;;;;;;62.17;36.07;;;4.00;99.90;;;;;;9801486;30;20226;-83
2023/03/02 17:31:36;;;;;;;109.70;57.63;;;3.80;99.90;;;;;;9798072;30;20245;-83
2023/03/02 17:36:59;;;;;;;84.63;44.87;;;3.70;99.90;;;;;;9809888;30;20213;-83
2023/03/02 17:42:20;;;;;;;60.17;32.60;;;3.50;99.90;;;;;;9807965;30;20292;-83
2023/03/02 17:47:42;;;;;;;56.70;29.90;;;3.30;99.90;;;;;;9809012;30;20263;-83
2023/03/02 17:53:03;;;;;;;64.87;32.27;;;3.00;99.90;;;;;;9809138;30;20218;-83
2023/03/02 17:58:24;;;;;;;84.93;38.50;;;2.90;99.90;;;;;;9819796;30;20291;-82
2023/03/02 18:03:50;;;;;;;87.10;40.30;;;2.80;99.90;;;;;;9796664;30;20205;-82
2023/03/02 18:09:11;;;;;;;95.10;42.70;;;2.80;99.90;;;;;;9807273;30;20271;-83
2023/03/02 18:14:34;;;;;;;80.63;40.00;;;2.70;99.90;;;;;;9796189;30;20213;-82
2023/03/02 18:19:54;;;;;;;68.67;32.67;;;2.90;99.90;;;;;;9807976;30;20402;-83
2023/03/02 18:25:16;;;;;;;55.53;27.90;;;2.90;99.90;;;;;;9819656;30;20212;-82
2023/03/02 18:30:37;;;;;;;59.60;27.47;;;2.80;99.90;;;;;;9795887;30;20613;-82
2023/03/02 18:36:03;;;;;;;56.43;29.03;;;3.00;99.90;;;;;;9807516;30;20301;-83
2023/03/02 18:41:25;;;;;;;53.30;29.40;;;3.00;99.90;;;;;;9771579;30;20214;-82
2023/03/02 18:46:46;;;;;;;41.00;22.57;;;2.80;99.90;;;;;;9795833;30;20240;-83
2023/03/02 18:52:10;;;;;;;42.47;22.57;;;2.80;99.90;;;;;;9794377;30;20253;-83
2023/03/02 18:57:32;;;;;;;43.33;22.23;;;2.90;99.90;;;;;;9778319;30;20224;-83
2023/03/02 19:02:55;;;;;;;38.33;20.03;;;2.80;99.90;;;;;;9794772;30;20232;-83
2023/03/02 19:08:16;;;;;;;35.03;18.50;;;2.80;99.90;;;;;;9816146;30;20228;-83
2023/03/02 19:13:37;;;;;;;30.37;17.23;;;2.70;99.90;;;;;;9819278;30;20216;-82
2023/03/02 19:18:59;;;;;;;25.03;15.70;;;2.60;99.90;;;;;;9807029;30;20252;-83
2023/03/02 19:24:20;;;;;;;29.43;17.97;;;2.40;99.90;;;;;;9816121;30;20205;-83
2023/03/02 19:29:41;;;;;;;33.13;18.93;;;2.30;99.90;;;;;;9811120;30;20232;-83
2023/03/02 19:35:03;;;;;;;27.20;16.50;;;2.20;99.90;;;;;;9794490;30;20568;-83
2023/03/02 19:40:26;;;;;;;40.27;21.20;;;2.30;99.90;;;;;;9825732;30;20208;-82
2023/03/02 19:45:49;;;;;;;43.67;23.23;;;2.30;99.90;;;;;;9802834;30;20208;-82
2023/03/02 19:51:13;;;;;;;40.43;21.53;;;2.30;99.90;;;;;;9807067;30;20237;-84
2023/03/02 19:56:38;;;;;;;33.57;18.00;;;2.40;99.90;;;;;;9784679;30;20500;-83
2023/03/02 20:02:00;;;;;;;30.77;16.83;;;2.60;99.90;;;;;;9756884;30;20229;-82
2023/03/02 20:07:21;;;;;;;27.00;16.13;;;2.60;99.90;;;;;;9788712;30;20398;-82
2023/03/02 20:12:42;;;;;;;41.03;20.77;;;2.70;99.90;;;;;;9786389;30;20236;-81
2023/03/02 20:18:06;;;;;;;21.10;12.40;;;2.70;99.90;;;;;;9805274;30;20472;-81
2023/03/02 20:23:27;;;;;;;25.57;12.67;;;2.50;99.90;;;;;;9805633;30;20472;-81
2023/03/02 20:28:49;;;;;;;28.10;15.47;;;2.40;99.90;;;;;;9796662;30;20238;-82
2023/03/02 20:34:14;;;;;;;24.47;14.43;;;2.40;99.90;;;;;;9804023;30;20288;-81
2023/03/02 20:39:38;;;;;;;30.07;15.27;;;2.50;99.90;;;;;;9805249;30;20204;-82
2023/03/02 20:45:00;;;;;;;23.70;13.13;;;2.50;99.90;;;;;;9815669;30;20205;-82
2023/03/02 20:50:25;;;;;;;26.93;14.17;;;2.40;99.90;;;;;;9798242;30;20302;-81
2023/03/02 20:55:47;;;;;;;27.47;14.30;;;2.40;99.90;;;;;;9811174;30;20450;-81
2023/03/02 21:01:10;;;;;;;26.97;14.07;;;2.40;99.90;;;;;;9823595;30;20434;-81
2023/03/02 21:06:33;;;;;;;19.50;11.93;;;2.40;99.90;;;;;;9793866;30;20210;-82
2023/03/02 21:11:56;;;;;;;20.53;11.60;;;2.40;99.90;;;;;;9774658;30;20271;-81
2023/03/02 21:17:18;;;;;;;20.77;11.30;;;2.40;99.90;;;;;;9781591;30;20336;-82
2023/03/02 21:22:41;;;;;;;15.07;10.33;;;2.30;99.90;;;;;;9810832;30;20224;-82
2023/03/02 21:28:02;;;;;;;18.63;10.80;;;2.30;99.90;;;;;;9810385;30;20515;-82
2023/03/02 21:33:23;;;;;;;16.33;10.07;;;2.30;99.90;;;;;;9808772;30;20212;-80
2023/03/02 21:38:44;;;;;;;15.33;10.50;;;2.30;99.90;;;;;;9797531;30;20262;-80
2023/03/02 21:44:06;;;;;;;18.53;11.13;;;2.10;99.90;;;;;;9809591;30;20287;-80
2023/03/02 21:49:28;;;;;;;22.73;12.80;;;2.10;99.90;;;;;;9808345;30;20407;-80
2023/03/02 21:54:49;;;;;;;21.50;13.40;;;2.10;99.90;;;;;;9809543;30;20426;-80
2023/03/02 22:00:35;;;;;;;17.50;11.10;;;2.20;99.90;;;;;;9808732;30;20295;-80
2023/03/02 22:05:55;;;;;;;16.27;10.70;;;2.00;99.90;;;;;;9807417;30;20475;-82
2023/03/02 22:11:36;;;;;;;14.73;9.90;;;1.90;99.90;;;;;;9796687;30;20286;-82
2023/03/02 22:16:58;;;;;;;14.67;10.00;;;1.70;99.90;;;;;;9807127;30;20264;-80
2023/03/02 22:22:29;;;;;;;14.33;9.10;;;1.70;99.90;;;;;;9772648;30;20207;-80
2023/03/02 22:27:50;;;;;;;21.20;12.87;;;1.70;99.90;;;;;;9772348;30;20383;-82
2023/03/02 22:33:17;;;;;;;21.00;12.80;;;1.80;99.90;;;;;;9776996;30;20216;-82
2023/03/02 22:38:38;;;;;;;15.80;11.00;;;1.80;99.90;;;;;;9776113;30;20212;-81
2023/03/02 22:43:59;;;;;;;21.53;12.07;;;1.90;99.90;;;;;;9768674;30;20409;-84
2023/03/02 22:49:21;;;;;;;15.87;9.80;;;1.90;99.90;;;;;;9809046;30;20434;-83
2023/03/02 22:54:44;;;;;;;18.50;9.77;;;2.00;99.90;;;;;;9808107;30;20280;-84
2023/03/02 23:00:14;;;;;;;13.70;9.20;;;2.00;99.90;;;;;;9806588;30;20208;-84
2023/03/02 23:05:36;;;;;;;16.83;9.77;;;1.90;99.90;;;;;;9776382;30;20209;-84
2023/03/02 23:10:58;;;;;;;16.40;9.70;;;1.80;99.90;;;;;;9794632;30;20315;-83
2023/03/02 23:16:25;;;;;;;15.07;9.50;;;1.90;99.90;;;;;;9795232;30;20245;-83
2023/03/02 23:21:48;;;;;;;14.73;9.50;;;1.90;99.90;;;;;;9796118;30;20262;-84
2023/03/02 23:27:10;;;;;;;13.87;9.10;;;1.70;99.90;;;;;;9795730;30;20406;-81
2023/03/02 23:32:31;;;;;;;11.30;7.60;;;1.70;99.90;;;;;;9792465;30;20232;-81
2023/03/02 23:37:53;;;;;;;14.03;8.23;;;1.60;99.90;;;;;;9778374;30;20205;-82
2023/03/02 23:43:14;;;;;;;12.53;8.63;;;1.60;99.90;;;;;;9794008;30;20210;-82
2023/03/02 23:48:35;;;;;;;15.60;9.50;;;1.50;99.90;;;;;;9773096;30;20506;-81
2023/03/02 23:53:56;;;;;;;17.03;9.83;;;1.50;99.90;;;;;;9757893;30;20211;-82
2023/03/02 23:59:18;;;;;;;17.53;10.10;;;1.40;99.90;;;;;;9769893;30;20207;-82
